Time;durP1;ratioP1;P1;durP2;ratioP2;P2;SDS_P1;SDS_P2;PMS_P1;PMS_P2;Temp;Humidity;BMP_temperature;BMP_pressure;BME280_temperature;BME280_humidity;BME280_pressure;Samples;Min_cycle;Max_cycle;Signal;HPM_P1;HPM_P2
2023/12/01 00:01:51;;;;;;;6.50;2.20;;;;;;;14.47;58.70;98279.69;5005255;28;20053;-82
2023/12/01 00:04:37;;;;;;;4.18;1.88;;;;;;;14.26;59.66;98287.06;5012793;28;20073;-81
2023/12/01 00:07:22;;;;;;;2.47;1.40;;;;;;;14.27;59.58;98268.06;5012589;28;20045;-82
2023/12/01 00:10:12;;;;;;;5.72;1.48;;;;;;;14.38;59.90;98286.72;4991762;28;20054;-84
2023/12/01 00:12:58;;;;;;;5.22;1.98;;;;;;;14.28;60.19;98293.72;5012558;28;20045;-86
2023/12/01 00:15:44;;;;;;;3.97;2.13;;;;;;;14.41;59.28;98291.50;5005857;28;20057;-82
2023/12/01 00:18:29;;;;;;;3.83;1.90;;;;;;;14.42;59.80;98301.13;4998586;28;20049;-82
2023/12/01 00:21:15;;;;;;;8.82;4.32;;;;;;;14.46;58.93;98288.81;5013541;28;20049;-82
2023/12/01 00:24:01;;;;;;;5.18;2.20;;;;;;;14.52;58.92;98290.41;5018947;28;20053;-83
2023/12/01 00:26:46;;;;;;;3.70;2.15;;;;;;;14.56;59.20;98294.09;5005104;28;20443;-85
2023/12/01 00:29:32;;;;;;;5.07;2.33;;;;;;;14.79;58.28;98282.72;4995358;28;20502;-81
2023/12/01 00:32:17;;;;;;;2.40;1.27;;;;;;;14.89;57.89;98273.00;4994477;28;20044;-84
2023/12/01 00:35:03;;;;;;;1.40;1.30;;;;;;;14.75;58.18;98270.97;5022217;28;20057;-83
2023/12/01 00:37:49;;;;;;;3.60;1.30;;;;;;;15.07;57.22;98288.34;5022536;28;20056;-82
2023/12/01 00:40:36;;;;;;;1.52;1.00;;;;;;;14.99;56.89;98294.31;5022238;28;20073;-82
2023/12/01 00:43:21;;;;;;;1.70;1.27;;;;;;;14.94;57.60;98294.34;5029395;28;20423;-83
2023/12/01 00:46:08;;;;;;;16.38;7.85;;;;;;;14.96;57.38;98290.31;5015802;28;20072;-82
2023/12/01 00:48:53;;;;;;;3.13;1.88;;;;;;;15.24;56.67;98282.59;5022212;28;20069;-83
2023/12/01 00:51:41;;;;;;;7.43;3.95;;;;;;;15.28;56.68;98289.75;5016087;28;20407;-82
2023/12/01 00:54:27;;;;;;;1.58;0.80;;;;;;;15.14;57.11;98288.03;5008699;28;20057;-83
2023/12/01 00:57:13;;;;;;;2.53;1.13;;;;;;;15.03;57.08;98298.81;5001867;28;20498;-83
2023/12/01 01:00:04;;;;;;;2.08;0.90;;;;;;;14.89;57.94;98283.72;5022018;28;20053;-82
2023/12/01 01:02:52;;;;;;;1.38;0.80;;;;;;;15.03;58.25;98281.97;5008335;28;20052;-82
2023/12/01 01:05:37;;;;;;;1.95;0.80;;;;;;;15.26;56.66;98286.59;5021889;28;20052;-80
2023/12/01 01:08:23;;;;;;;0.82;0.77;;;;;;;15.22;57.20;98279.38;5021964;28;20057;-83
2023/12/01 01:11:09;;;;;;;0.68;0.60;;;;;;;15.18;57.58;98289.84;5008256;28;20057;-82
2023/12/01 01:13:56;;;;;;;0.60;0.60;;;;;;;15.37;57.01;98281.91;5008132;28;20052;-82
2023/12/01 01:16:41;;;;;;;1.73;0.75;;;;;;;15.20;56.99;98266.31;5007633;28;20518;-82
2023/12/01 01:19:26;;;;;;;4.30;2.50;;;;;;;15.36;56.34;98285.69;5007937;28;20065;-83
2023/12/01 01:22:11;;;;;;;4.50;2.50;;;;;;;15.23;57.50;98297.03;5015782;28;20049;-82
2023/12/01 01:24:57;;;;;;;8.63;3.58;;;;;;;15.25;57.38;98290.31;5021652;28;20056;-82
2023/12/01 01:27:42;;;;;;;1.25;0.90;;;;;;;15.33;56.70;98283.56;5014698;28;20061;-82
2023/12/01 01:30:27;;;;;;;2.00;1.17;;;;;;;15.55;56.66;98291.09;5014717;28;20053;-82
2023/12/01 01:33:12;;;;;;;2.40;0.90;;;;;;;15.43;57.24;98288.00;5029172;28;20060;-81
2023/12/01 01:35:58;;;;;;;0.98;0.82;;;;;;;15.34;56.95;98289.72;5022463;28;20057;-83
2023/12/01 01:38:45;;;;;;;0.65;0.60;;;;;;;15.37;57.08;98286.47;5015353;28;20052;-82
2023/12/01 01:41:33;;;;;;;2.42;0.80;;;;;;;15.39;57.05;98281.63;5015740;28;20049;-82
2023/12/01 01:44:23;;;;;;;2.88;0.90;;;;;;;15.37;57.52;98273.09;5015715;28;20053;-82
2023/12/01 01:47:09;;;;;;;1.55;0.82;;;;;;;15.52;56.70;98288.19;5015643;28;20053;-82
2023/12/01 01:49:56;;;;;;;1.42;0.93;;;;;;;15.53;57.05;98274.50;5021052;28;20056;-82
2023/12/01 01:52:41;;;;;;;3.25;1.20;;;;;;;15.39;57.78;98269.03;5014894;28;20053;-82
2023/12/01 01:55:28;;;;;;;2.17;1.10;;;;;;;15.60;56.59;98266.13;5014240;28;20052;-83
2023/12/01 01:58:13;;;;;;;3.08;1.15;;;;;;;15.58;56.49;98266.44;5007216;28;20056;-81
2023/12/01 02:00:58;;;;;;;0.85;0.60;;;;;;;15.50;57.14;98272.41;5020663;28;20056;-83
2023/12/01 02:03:43;;;;;;;2.17;0.70;;;;;;;15.52;56.78;98267.56;5020936;28;20045;-83
2023/12/01 02:06:33;;;;;;;0.88;0.75;;;;;;;15.55;56.29;98267.00;4993080;28;20053;-84
2023/12/01 02:09:18;;;;;;;2.58;0.75;;;;;;;15.52;57.46;98267.56;5021128;28;20049;-84
2023/12/01 02:12:05;;;;;;;1.50;0.73;;;;;;;15.43;57.15;98261.25;5014941;28;20068;-84
2023/12/01 02:14:50;;;;;;;0.80;0.50;;;;;;;15.37;57.38;98273.88;5034646;28;20049;-83
2023/12/01 02:17:37;;;;;;;1.17;0.90;;;;;;;15.35;58.00;98261.84;5006933;28;20056;-83
2023/12/01 02:20:24;;;;;;;1.17;0.75;;;;;;;15.36;58.75;98266.16;5000398;28;20048;-84
2023/12/01 02:23:10;;;;;;;1.88;0.70;;;;;;;15.22;58.60;98253.41;5015003;28;20049;-82
2023/12/01 02:25:56;;;;;;;0.70;0.70;;;;;;;15.17;59.10;98233.97;5014692;28;20064;-84
2023/12/01 02:28:40;;;;;;;0.88;0.70;;;;;;;15.20;58.86;98233.38;5014053;28;20061;-84
2023/12/01 02:31:26;;;;;;;1.02;0.93;;;;;;;15.42;57.83;98235.56;5019938;28;20061;-83
2023/12/01 02:34:11;;;;;;;1.50;0.80;;;;;;;15.47;58.17;98243.50;5014667;28;20060;-83
2023/12/01 02:36:58;;;;;;;1.27;0.80;;;;;;;15.45;57.97;98235.78;5020048;28;20048;-84
2023/12/01 02:39:44;;;;;;;1.88;0.60;;;;;;;15.56;57.84;98227.63;5006294;28;20526;-84
2023/12/01 02:42:30;;;;;;;1.17;0.85;;;;;;;15.56;57.74;98230.31;5014227;28;20045;-82
2023/12/01 02:45:19;;;;;;;1.38;0.50;;;;;;;15.66;57.57;98225.59;5014588;28;20049;-83
2023/12/01 02:48:06;;;;;;;0.52;0.43;;;;;;;15.65;57.49;98240.09;5019996;28;20069;-83
2023/12/01 02:50:52;;;;;;;0.68;0.60;;;;;;;15.64;57.84;98248.44;5005324;28;20053;-84
2023/12/01 02:53:38;;;;;;;0.90;0.70;;;;;;;15.50;58.49;98254.44;5006425;28;20056;-83
2023/12/01 02:56:24;;;;;;;1.20;0.85;;;;;;;15.46;57.92;98252.63;5017431;28;20050;-85
2023/12/01 02:59:09;;;;;;;0.80;0.70;;;;;;;15.43;57.79;98253.22;5038521;28;20049;-82
2023/12/01 03:01:55;;;;;;;1.40;0.60;;;;;;;15.53;57.51;98271.84;5012939;28;20052;-83
2023/12/01 03:04:40;;;;;;;1.27;0.63;;;;;;;15.42;58.26;98267.69;5013740;28;20506;-83
2023/12/01 03:07:26;;;;;;;1.55;0.70;;;;;;;15.30;59.18;98254.69;5019395;28;20044;-81
2023/12/01 03:10:12;;;;;;;0.60;0.60;;;;;;;15.30;59.32;98253.91;5014000;28;20053;-84
2023/12/01 03:12:58;;;;;;;0.93;0.60;;;;;;;15.15;59.56;98247.59;5005907;28;20506;-83
2023/12/01 03:15:44;;;;;;;1.40;0.90;;;;;;;15.32;58.64;98249.81;5013907;28;20399;-83
2023/12/01 03:18:31;;;;;;;2.58;1.00;;;;;;;15.31;59.86;98260.84;5013796;28;20514;-84
2023/12/01 03:21:17;;;;;;;1.35;0.93;;;;;;;15.29;59.70;98245.03;5019456;28;20053;-82
2023/12/01 03:24:04;;;;;;;3.20;1.60;;;;;;;15.43;58.86;98240.63;5012983;28;20057;-83
2023/12/01 03:26:49;;;;;;;2.22;1.00;;;;;;;15.39;59.65;98233.44;5026519;28;20068;-82
2023/12/01 03:29:35;;;;;;;2.60;1.50;;;;;;;15.44;58.75;98234.16;5010798;28;20064;-83
2023/12/01 03:32:20;;;;;;;1.10;0.80;;;;;;;15.45;58.99;98245.69;5011948;28;20513;-85
2023/12/01 03:35:06;;;;;;;1.13;0.80;;;;;;;15.58;58.25;98242.31;5003748;28;20514;-83
2023/12/01 03:37:56;;;;;;;0.57;0.57;;;;;;;15.65;58.00;98242.78;5031976;28;20072;-82
2023/12/01 03:40:42;;;;;;;1.17;0.80;;;;;;;15.56;58.28;98233.78;5013589;28;20057;-82
2023/12/01 03:43:28;;;;;;;2.78;1.00;;;;;;;15.51;59.01;98239.19;5019025;28;20053;-84
2023/12/01 03:46:13;;;;;;;0.95;0.60;;;;;;;15.40;59.00;98227.81;5013731;28;20053;-82
2023/12/01 03:48:59;;;;;;;1.13;0.90;;;;;;;15.55;58.71;98223.38;5033373;28;20045;-82
2023/12/01 03:51:44;;;;;;;0.68;0.65;;;;;;;15.36;60.16;98220.63;5026322;28;20072;-85
2023/12/01 03:54:29;;;;;;;0.77;0.70;;;;;;;15.35;59.81;98227.84;5011946;28;20048;-83
2023/12/01 03:57:15;;;;;;;1.15;0.90;;;;;;;15.31;59.45;98218.00;5013328;28;20053;-81
2023/12/01 04:00:00;;;;;;;1.25;0.93;;;;;;;15.43;59.05;98221.88;5013158;28;20057;-83
2023/12/01 04:02:47;;;;;;;1.38;0.85;;;;;;;15.53;59.12;98226.31;5028079;28;20140;-84
2023/12/01 04:05:33;;;;;;;0.75;0.70;;;;;;;15.69;58.14;98214.34;5022768;28;20053;-83
2023/12/01 04:08:18;;;;;;;1.73;0.80;;;;;;;15.61;58.73;98220.34;5023727;28;20057;-84
2023/12/01 04:11:06;;;;;;;1.20;0.80;;;;;;;15.45;59.24;98224.28;5031214;28;20439;-83
2023/12/01 04:13:52;;;;;;;2.78;0.70;;;;;;;15.52;59.07;98205.97;5029887;28;20052;-84
2023/12/01 04:16:38;;;;;;;1.65;0.98;;;;;;;15.62;58.71;98197.03;5029961;28;20056;-84
2023/12/01 04:19:23;;;;;;;2.58;1.38;;;;;;;15.58;58.41;98188.78;5023571;28;20494;-82
2023/12/01 04:22:09;;;;;;;3.17;1.42;;;;;;;15.55;58.61;98193.91;5008673;28;20041;-85
2023/12/01 04:24:55;;;;;;;2.05;1.00;;;;;;;15.54;58.83;98179.69;5009205;28;20057;-84
2023/12/01 04:27:42;;;;;;;3.15;0.82;;;;;;;15.72;58.01;98181.63;5015967;28;20049;-83
2023/12/01 04:30:27;;;;;;;0.82;0.73;;;;;;;15.70;59.22;98188.38;5016896;28;20135;-84
2023/12/01 04:33:13;;;;;;;0.98;0.75;;;;;;;15.70;58.13;98186.50;5001907;28;20065;-83
2023/12/01 04:36:06;;;;;;;2.33;1.20;;;;;;;15.75;58.15;98185.63;5015684;28;20052;-83
2023/12/01 04:38:52;;;;;;;1.77;1.05;;;;;;;16.19;57.00;98182.56;4996251;28;20044;-83
2023/12/01 04:41:39;;;;;;;1.58;0.93;;;;;;;16.13;57.76;98180.25;5016780;28;20045;-84
2023/12/01 04:44:26;;;;;;;5.20;2.35;;;;;;;16.07;57.16;98168.81;5008417;28;20510;-83
2023/12/01 04:47:11;;;;;;;2.03;1.35;;;;;;;16.15;57.33;98194.19;5016727;28;20523;-84
2023/12/01 04:49:57;;;;;;;1.75;1.10;;;;;;;16.15;56.85;98216.41;5016783;28;20057;-84
2023/12/01 04:52:43;;;;;;;1.40;0.80;;;;;;;16.18;56.98;98209.69;5029520;28;20053;-83
2023/12/01 04:55:29;;;;;;;1.33;0.80;;;;;;;16.38;56.38;98220.09;5016637;28;20061;-83
2023/12/01 04:58:15;;;;;;;2.30;0.90;;;;;;;16.42;56.79;98217.59;5001733;28;20052;-82
2023/12/01 05:01:00;;;;;;;1.27;0.88;;;;;;;16.35;57.11;98201.09;5015059;28;20048;-83
2023/12/01 05:03:46;;;;;;;4.20;1.45;;;;;;;16.36;56.61;98216.13;5016206;28;20117;-85
2023/12/01 05:06:32;;;;;;;3.10;1.10;;;;;;;16.24;57.14;98213.09;5016192;28;20056;-84
2023/12/01 05:09:18;;;;;;;1.90;1.17;;;;;;;16.28;57.53;98220.25;5016161;28;20499;-84
2023/12/01 05:12:05;;;;;;;2.10;1.10;;;;;;;16.13;57.52;98215.91;5014936;28;20408;-86
2023/12/01 05:14:50;;;;;;;1.75;1.05;;;;;;;16.13;58.11;98226.63;5014093;28;20049;-84
2023/12/01 05:17:36;;;;;;;1.63;1.27;;;;;;;16.15;57.22;98219.09;5016221;28;20408;-83
2023/12/01 05:20:24;;;;;;;1.50;0.85;;;;;;;16.23;57.20;98228.34;5017644;28;20057;-83
2023/12/01 05:23:09;;;;;;;2.38;1.00;;;;;;;16.41;56.28;98240.16;5029035;28;20045;-83
2023/12/01 05:25:55;;;;;;;2.22;1.38;;;;;;;16.50;56.27;98237.63;5026707;28;20040;-82
2023/12/01 05:28:41;;;;;;;5.05;1.85;;;;;;;16.42;56.51;98226.47;5035445;28;20056;-85
2023/12/01 05:31:27;;;;;;;6.93;3.17;;;;;;;16.30;56.63;98225.34;5016429;28;20053;-84
2023/12/01 05:34:13;;;;;;;7.20;3.30;;;;;;;16.19;58.11;98238.88;5022181;28;20396;-85
2023/12/01 05:37:00;;;;;;;7.03;3.10;;;;;;;16.15;58.11;98220.97;5007568;28;20052;-85
2023/12/01 05:39:45;;;;;;;20.25;6.70;;;;;;;16.08;58.16;98233.97;5035423;28;20053;-83
2023/12/01 05:42:31;;;;;;;12.65;4.82;;;;;;;16.11;57.77;98220.78;5015534;28;20040;-84
2023/12/01 05:45:18;;;;;;;13.48;6.10;;;;;;;15.90;58.54;98201.50;5015400;28;20057;-84
2023/12/01 05:48:07;;;;;;;8.05;4.28;;;;;;;15.80;59.04;98174.06;5014229;28;20053;-85
2023/12/01 05:50:52;;;;;;;16.92;7.63;;;;;;;15.99;58.74;98185.56;5028383;28;20514;-84
2023/12/01 05:53:40;;;;;;;9.52;4.70;;;;;;;16.25;57.54;98172.56;5014986;28;20066;-87
2023/12/01 05:56:26;;;;;;;11.70;6.57;;;;;;;16.19;57.41;98182.56;5030613;28;20057;-86
2023/12/01 05:59:13;;;;;;;34.42;13.68;;;;;;;16.31;58.08;98192.06;5020691;28;20053;-83
2023/12/01 06:02:03;;;;;;;5.07;2.50;;;;;;;16.44;56.67;98196.66;5028271;28;20057;-85
2023/12/01 06:04:48;;;;;;;3.25;2.30;;;;;;;16.60;56.98;98197.22;5027940;28;20049;-85
2023/12/01 06:07:36;;;;;;;3.33;2.08;;;;;;;16.78;56.27;98230.50;5015097;28;20077;-82
2023/12/01 06:10:23;;;;;;;4.15;2.40;;;;;;;16.68;56.28;98246.72;5027556;28;20061;-84
2023/12/01 06:13:14;;;;;;;26.95;2.60;;;;;;;16.76;56.20;98251.44;5020080;28;20514;-83
2023/12/01 06:16:01;;;;;;;4.78;2.35;;;;;;;16.75;55.87;98247.16;5020412;28;20506;-83
2023/12/01 06:18:47;;;;;;;15.02;7.00;;;;;;;16.53;57.13;98269.22;5013143;28;20068;-84
2023/12/01 06:21:33;;;;;;;4.22;2.17;;;;;;;16.57;56.20;98262.97;5027430;28;20053;-83
2023/12/01 06:24:21;;;;;;;3.33;2.08;;;;;;;16.67;56.62;98264.69;5019240;28;20057;-83
2023/12/01 06:27:06;;;;;;;6.90;2.67;;;;;;;16.74;56.03;98257.09;5013391;28;20057;-84
2023/12/01 06:29:53;;;;;;;4.68;2.10;;;;;;;16.75;56.44;98265.94;5007427;28;20060;-85
2023/12/01 06:32:42;;;;;;;5.63;2.90;;;;;;;16.63;57.37;98274.41;5015488;28;20045;-84
2023/12/01 06:35:29;;;;;;;5.30;2.28;;;;;;;16.62;57.97;98284.34;5020094;28;20061;-83
2023/12/01 06:38:16;;;;;;;5.88;2.90;;;;;;;16.58;57.91;98279.88;5013298;28;20061;-83
2023/12/01 06:41:01;;;;;;;5.75;2.95;;;;;;;16.54;58.02;98279.63;5014547;28;20052;-84
2023/12/01 06:43:46;;;;;;;8.18;4.03;;;;;;;16.51;58.87;98282.91;5014590;28;20399;-84
2023/12/01 06:46:33;;;;;;;7.22;2.92;;;;;;;16.60;58.32;98288.41;5021228;28;20502;-83
2023/12/01 06:49:19;;;;;;;5.15;2.50;;;;;;;16.65;58.72;98262.31;5019649;28;20061;-82
2023/12/01 06:52:08;;;;;;;9.18;4.00;;;;;;;16.74;58.68;98296.53;5014029;28;20050;-82
2023/12/01 06:54:53;;;;;;;3.45;1.60;;;;;;;16.72;59.04;98298.69;5002712;28;20053;-84
2023/12/01 06:57:44;;;;;;;5.35;2.53;;;;;;;16.76;58.71;98299.72;5014070;28;20056;-84
2023/12/01 07:00:32;;;;;;;4.10;1.95;;;;;;;16.84;58.91;98293.72;4999058;28;20049;-83
2023/12/01 07:03:18;;;;;;;6.53;3.22;;;;;;;16.82;58.58;98288.63;5005853;28;20048;-83
2023/12/01 07:06:04;;;;;;;4.32;2.50;;;;;;;16.92;58.52;98302.97;5013296;28;20510;-82
2023/12/01 07:08:49;;;;;;;4.60;2.95;;;;;;;16.91;58.38;98306.75;5016577;28;20052;-84
2023/12/01 07:11:34;;;;;;;3.30;2.13;;;;;;;16.93;58.54;98280.44;5015190;28;20052;-82
2023/12/01 07:14:23;;;;;;;5.22;1.60;;;;;;;16.95;58.15;98273.66;5019987;28;20045;-83
2023/12/01 07:17:09;;;;;;;4.32;1.90;;;;;;;16.87;58.70;98250.19;5013697;28;20048;-83
2023/12/01 07:19:55;;;;;;;2.30;1.73;;;;;;;16.82;58.39;98250.28;5013751;28;20064;-82
2023/12/01 07:22:43;;;;;;;2.15;1.65;;;;;;;16.93;58.15;98251.69;5012564;28;20387;-83
2023/12/01 07:25:28;;;;;;;2.72;2.10;;;;;;;16.86;58.43;98241.34;5012732;28;20061;-82
2023/12/01 07:28:14;;;;;;;4.35;2.55;;;;;;;16.94;58.81;98261.34;5012747;28;20041;-82
2023/12/01 07:31:00;;;;;;;8.05;3.00;;;;;;;16.95;58.99;98262.13;5014246;28;20052;-84
2023/12/01 07:33:46;;;;;;;8.98;5.10;;;;;;;16.87;59.20;98253.66;5014077;28;20053;-83
2023/12/01 07:36:33;;;;;;;6.18;3.20;;;;;;;16.98;59.12;98272.28;5013801;28;20503;-84
2023/12/01 07:39:22;;;;;;;3.70;2.50;;;;;;;17.09;59.00;98255.69;5024162;28;20052;-84
2023/12/01 07:42:10;;;;;;;6.80;3.33;;;;;;;17.12;58.76;98243.59;5030457;28;20049;-84
2023/12/01 07:44:57;;;;;;;5.47;2.22;;;;;;;17.28;58.12;98274.44;5030718;28;20100;-83
2023/12/01 07:47:45;;;;;;;3.05;1.88;;;;;;;17.34;58.37;98285.88;5037074;28;20060;-84
2023/12/01 07:50:31;;;;;;;3.60;1.40;;;;;;;17.51;56.95;98282.59;5016506;28;20053;-84
2023/12/01 07:53:17;;;;;;;3.47;1.40;;;;;;;17.65;56.61;98285.31;5016800;28;20061;-81
2023/12/01 07:56:03;;;;;;;2.47;1.70;;;;;;;17.68;56.60;98276.66;5017247;28;20060;-83
2023/12/01 07:58:50;;;;;;;5.65;2.40;;;;;;;17.82;56.71;98288.19;5002963;28;20061;-83
2023/12/01 08:01:36;;;;;;;6.88;3.33;;;;;;;17.82;56.02;98288.19;5004909;28;20052;-82
2023/12/01 08:04:21;;;;;;;4.45;2.13;;;;;;;17.93;55.80;98289.59;5021969;28;20049;-82
2023/12/01 08:07:07;;;;;;;8.23;3.75;;;;;;;17.96;55.46;98274.78;5016762;28;20057;-83
2023/12/01 08:09:53;;;;;;;6.57;3.53;;;;;;;18.00;55.02;98273.84;5030350;28;20613;-83
2023/12/01 08:12:40;;;;;;;4.35;2.28;;;;;;;18.10;54.20;98272.03;5015540;28;20073;-82
2023/12/01 08:15:26;;;;;;;3.40;1.58;;;;;;;18.28;53.24;98276.50;5015668;28;20056;-82
2023/12/01 08:18:12;;;;;;;4.78;1.73;;;;;;;18.27;53.27;98274.91;5016310;28;20045;-82
2023/12/01 08:20:59;;;;;;;5.30;2.20;;;;;;;18.21;53.92;98289.56;5014502;28;20057;-82
2023/12/01 08:23:49;;;;;;;4.75;2.45;;;;;;;18.20;53.65;98277.97;5016780;28;20109;-82
2023/12/01 08:26:34;;;;;;;6.50;3.08;;;;;;;18.22;53.67;98288.44;5022259;28;20526;-82
2023/12/01 08:29:21;;;;;;;4.82;2.22;;;;;;;18.24;53.40;98288.97;5006766;28;20057;-81
2023/12/01 08:32:08;;;;;;;4.60;2.05;;;;;;;18.21;53.76;98311.06;5015433;28;20060;-79
2023/12/01 08:34:54;;;;;;;6.38;3.00;;;;;;;18.18;54.05;98300.91;5015395;28;20056;-79
2023/12/01 08:37:40;;;;;;;3.08;1.98;;;;;;;18.11;54.16;98290.56;5015329;28;20053;-83
2023/12/01 08:40:25;;;;;;;4.47;2.28;;;;;;;18.12;54.35;98291.38;5014561;28;20045;-82
2023/12/01 08:43:10;;;;;;;5.88;2.55;;;;;;;18.24;53.81;98283.56;5016137;28;20395;-82
2023/12/01 08:45:57;;;;;;;5.55;2.33;;;;;;;18.08;54.07;98290.34;5014556;28;20057;-83
2023/12/01 08:48:45;;;;;;;4.53;2.17;;;;;;;18.24;53.63;98288.97;5015320;28;20057;-83
2023/12/01 08:51:31;;;;;;;3.63;1.70;;;;;;;18.29;53.59;98283.44;5015635;28;20065;-82
2023/12/01 08:54:19;;;;;;;2.92;1.27;;;;;;;18.31;53.47;98278.56;5014928;28;20049;-80
2023/12/01 08:57:05;;;;;;;2.75;1.58;;;;;;;18.28;53.34;98289.94;5014741;28;20061;-79
2023/12/01 08:59:50;;;;;;;4.90;2.10;;;;;;;18.38;52.92;98265.50;5027543;28;20060;-81
2023/12/01 09:02:36;;;;;;;5.07;2.75;;;;;;;18.40;53.12;98263.31;5015170;28;20057;-80
2023/12/01 09:05:24;;;;;;;3.53;2.03;;;;;;;18.51;52.98;98266.53;5021906;28;20413;-83
2023/12/01 09:08:11;;;;;;;3.70;1.88;;;;;;;18.56;52.80;98273.72;5020543;28;20052;-82
2023/12/01 09:10:58;;;;;;;4.15;1.75;;;;;;;18.50;52.96;98275.72;5020559;28;20056;-83
2023/12/01 09:13:46;;;;;;;4.15;2.38;;;;;;;18.43;53.64;98256.53;5014843;28;20523;-81
2023/12/01 09:16:32;;;;;;;4.32;2.60;;;;;;;18.41;52.90;98262.19;5015008;28;20049;-83
2023/12/01 09:19:17;;;;;;;3.42;2.00;;;;;;;18.45;53.12;98265.84;5014805;28;20060;-83
2023/12/01 09:22:03;;;;;;;2.22;1.50;;;;;;;18.50;53.21;98260.38;5021043;28;20057;-83
2023/12/01 09:24:48;;;;;;;7.38;2.20;;;;;;;18.56;52.67;98263.75;5021179;28;20053;-83
2023/12/01 09:27:35;;;;;;;5.30;1.77;;;;;;;18.65;52.55;98247.66;5014691;28;20056;-82
2023/12/01 09:30:22;;;;;;;4.07;2.00;;;;;;;18.61;52.46;98242.06;5013623;28;20049;-82
2023/12/01 09:33:08;;;;;;;4.43;2.30;;;;;;;18.56;52.84;98225.28;5014557;28;20081;-81
2023/12/01 09:35:54;;;;;;;5.68;2.15;;;;;;;18.64;52.00;98230.69;5021066;28;20041;-82
2023/12/01 09:38:41;;;;;;;4.90;2.50;;;;;;;18.59;53.25;98241.59;5020144;28;20057;-82
2023/12/01 09:41:27;;;;;;;5.53;2.22;;;;;;;18.66;52.56;98243.88;5014530;28;20057;-84
2023/12/01 09:44:14;;;;;;;4.30;2.13;;;;;;;18.65;52.71;98236.91;5000015;28;20049;-82
2023/12/01 09:47:02;;;;;;;5.97;2.25;;;;;;;18.58;52.78;98245.38;5022422;28;20053;-83
2023/12/01 09:49:51;;;;;;;4.63;2.08;;;;;;;18.55;53.26;98250.56;5027393;28;20065;-81
2023/12/01 09:52:38;;;;;;;5.93;2.20;;;;;;;18.63;52.72;98247.97;5021144;28;20049;-81
2023/12/01 09:55:25;;;;;;;6.45;2.75;;;;;;;18.60;53.06;98235.13;5020533;28;20061;-82
2023/12/01 09:58:11;;;;;;;8.07;3.60;;;;;;;18.52;53.61;98246.63;5012811;28;20129;-82
2023/12/01 10:00:57;;;;;;;6.90;3.55;;;;;;;18.58;53.26;98266.13;5019382;28;20060;-83
2023/12/01 10:03:43;;;;;;;6.38;2.75;;;;;;;18.57;52.01;98249.19;5026625;28;20053;-83
2023/12/01 10:06:28;;;;;;;11.82;4.60;;;;;;;18.73;51.24;98236.19;5017282;28;20298;-83
2023/12/01 10:09:25;;;;;;;15.95;7.65;;;;;;;18.78;51.62;98222.59;5017004;28;20052;-83
2023/12/01 10:12:12;;;;;;;7.75;2.95;;;;;;;18.73;51.36;98209.28;5017334;28;20045;-83
2023/12/01 10:14:58;;;;;;;5.60;2.90;;;;;;;18.81;52.19;98205.84;5016058;28;20391;-82
2023/12/01 10:17:44;;;;;;;4.85;2.30;;;;;;;18.84;52.22;98218.69;5015943;28;20052;-83
2023/12/01 10:20:30;;;;;;;6.95;3.60;;;;;;;18.87;52.12;98226.16;5016108;28;20053;-83
2023/12/01 10:23:19;;;;;;;7.28;3.25;;;;;;;18.92;52.47;98227.91;5021993;28;20045;-83
2023/12/01 10:26:07;;;;;;;9.45;2.47;;;;;;;18.82;52.25;98218.19;5009250;28;20510;-83
2023/12/01 10:28:52;;;;;;;6.97;3.95;;;;;;;18.90;52.36;98225.53;5021429;28;20052;-83
2023/12/01 10:31:47;;;;;;;6.70;2.65;;;;;;;18.84;52.75;98218.69;5007906;28;20510;-83
2023/12/01 10:34:32;;;;;;;7.57;3.63;;;;;;;18.93;52.29;98222.22;5001611;28;20105;-82
2023/12/01 10:37:19;;;;;;;10.77;5.82;;;;;;;18.94;51.79;98231.88;5017579;28;20056;-83
2023/12/01 10:40:06;;;;;;;11.30;5.95;;;;;;;18.84;52.30;98229.44;5019037;28;20057;-83
2023/12/01 10:42:52;;;;;;;12.65;6.93;;;;;;;18.80;51.73;98231.16;5012490;28;20392;-83
2023/12/01 10:45:38;;;;;;;17.48;8.35;;;;;;;18.72;52.33;98223.81;5012323;28;20399;-83
2023/12/01 10:48:25;;;;;;;8.93;4.47;;;;;;;18.96;50.61;98223.50;5013107;28;20503;-83
2023/12/01 10:51:15;;;;;;;8.98;4.10;;;;;;;19.13;50.00;98228.16;5012106;28;20052;-83
2023/12/01 10:54:01;;;;;;;16.45;7.43;;;;;;;19.34;49.66;98221.13;5016025;28;20049;-82
2023/12/01 10:57:16;;;;;;;8.57;3.95;;;;;;;19.57;49.04;98227.22;5013373;28;20061;-83
2023/12/01 11:00:06;;;;;;;7.38;3.13;;;;;;;19.72;47.99;98212.56;5017201;28;20053;-82
2023/12/01 11:02:51;;;;;;;4.18;2.20;;;;;;;19.73;48.49;98208.75;5016388;28;20065;-82
2023/12/01 11:05:38;;;;;;;8.68;4.65;;;;;;;19.74;48.14;98204.97;5017154;28;20399;-83
2023/12/01 11:08:38;;;;;;;33.50;18.48;;;;;;;19.75;49.26;98206.53;5014962;28;20068;-82
2023/12/01 11:11:29;;;;;;;6.55;2.72;;;;;;;20.04;44.89;98205.16;5013287;28;20064;-84
2023/12/01 11:14:21;;;;;;;8.30;3.70;;;;;;;19.93;47.66;98207.38;5012624;28;20104;-83
2023/12/01 11:17:06;;;;;;;10.95;3.90;;;;;;;19.99;46.97;98189.09;5004716;28;20045;-81
2023/12/01 11:19:53;;;;;;;7.13;2.40;;;;;;;20.15;45.80;98184.84;5011727;28;20056;-81
2023/12/01 11:22:40;;;;;;;8.55;3.78;;;;;;;20.09;46.44;98159.94;5012516;28;20065;-82
2023/12/01 11:25:48;;;;;;;4.93;2.40;;;;;;;20.19;45.79;98156.13;5018281;28;20060;-83
2023/12/01 11:31:35;;;;;;;6.63;2.80;;;;;;;20.09;46.28;98168.03;5019716;28;20069;-85
2023/12/01 11:34:21;;;;;;;7.60;2.80;;;;;;;20.03;46.17;98155.81;5012493;28;20506;-86
2023/12/01 11:37:06;;;;;;;8.90;3.08;;;;;;;20.02;45.30;98140.72;5004672;28;20044;-83
2023/12/01 11:40:18;;;;;;;7.32;2.83;;;;;;;19.99;46.84;98154.06;5012756;28;20056;-83
2023/12/01 11:43:06;;;;;;;8.30;3.38;;;;;;;19.92;46.47;98148.34;5012609;28;20071;-82
2023/12/01 11:45:52;;;;;;;6.65;2.90;;;;;;;19.75;46.42;98136.47;5017768;28;20387;-82
2023/12/01 11:48:39;;;;;;;11.23;5.57;;;;;;;19.85;45.78;98144.22;5012426;28;20412;-82
2023/12/01 11:51:26;;;;;;;25.27;10.98;;;;;;;19.78;46.74;98135.03;5019136;28;20048;-85
2023/12/01 11:54:12;;;;;;;15.48;7.97;;;;;;;19.59;46.84;98132.59;5012601;28;20052;-83
2023/12/01 11:56:58;;;;;;;13.60;4.50;;;;;;;19.71;45.89;98140.09;5011944;28;20076;-82
2023/12/01 11:59:45;;;;;;;12.90;5.53;;;;;;;19.71;46.09;98132.81;5012422;28;20064;-82
2023/12/01 12:02:30;;;;;;;21.05;10.05;;;;;;;19.63;46.64;98133.56;5012909;28;20041;-82
2023/12/01 12:05:17;;;;;;;17.50;8.93;;;;;;;19.60;46.32;98118.03;5011950;28;20558;-82
2023/12/01 12:08:02;;;;;;;31.73;16.65;;;;;;;19.54;46.71;98119.28;5012006;28;20052;-83
2023/12/01 12:10:48;;;;;;;12.82;6.70;;;;;;;19.58;46.77;98114.84;5012228;28;20069;-83
2023/12/01 12:13:33;;;;;;;10.23;4.45;;;;;;;19.68;46.26;98102.97;5012671;28;20684;-83
2023/12/01 12:16:20;;;;;;;11.25;4.82;;;;;;;19.64;46.13;98095.53;5013200;28;20109;-81
2023/12/01 12:19:08;;;;;;;9.80;3.90;;;;;;;19.81;45.64;98102.06;5012495;28;20049;-82
2023/12/01 12:21:54;;;;;;;6.53;2.75;;;;;;;19.88;45.71;98118.53;5012065;28;20056;-82
2023/12/01 12:24:42;;;;;;;7.50;3.60;;;;;;;19.84;46.16;98117.59;5013994;28;20050;-81
2023/12/01 12:27:39;;;;;;;7.88;3.92;;;;;;;19.82;45.76;98098.25;5015504;28;20068;-81
2023/12/01 12:30:24;;;;;;;11.23;4.32;;;;;;;19.68;46.38;98097.59;5016418;28;20045;-82
2023/12/01 12:33:10;;;;;;;6.63;2.38;;;;;;;19.96;45.05;98098.88;5017255;28;20045;-83
2023/12/01 12:35:57;;;;;;;167.48;64.07;;;;;;;20.13;44.51;98116.94;5016789;28;20052;-82
2023/12/01 12:38:47;;;;;;;231.68;82.25;;;;;;;19.93;45.31;98115.69;5015636;28;20057;-83
2023/12/01 12:41:36;;;;;;;40.45;12.48;;;;;;;20.07;44.32;98131.69;5015666;28;20391;-84
2023/12/01 12:44:23;;;;;;;97.00;30.00;;;;;;;20.06;44.49;98141.69;5022105;28;20152;-81
2023/12/01 12:47:09;;;;;;;82.88;47.65;;;;;;;20.01;44.52;98146.44;5015383;28;20049;-82
2023/12/01 12:49:56;;;;;;;33.53;23.85;;;;;;;19.88;45.01;98150.88;5015437;28;20056;-82
2023/12/01 12:52:41;;;;;;;26.90;17.73;;;;;;;19.77;45.36;98133.44;5015575;28;20065;-82
2023/12/01 12:55:28;;;;;;;9.55;5.75;;;;;;;19.69;46.04;98129.63;5015168;28;20052;-81
2023/12/01 12:58:13;;;;;;;9.15;4.28;;;;;;;19.71;45.37;98138.22;5015556;28;20053;-81
2023/12/01 13:00:59;;;;;;;7.57;4.43;;;;;;;19.87;45.40;98138.53;5014347;28;20060;-80
2023/12/01 13:03:45;;;;;;;14.38;7.70;;;;;;;19.84;45.96;98150.72;5015143;28;20048;-80
2023/12/01 13:06:31;;;;;;;13.48;8.18;;;;;;;19.76;46.05;98165.00;5014960;28;20057;-80